Time;durP1;ratioP1;P1;durP2;ratioP2;P2;SDS_P1;SDS_P2;PMS_P1;PMS_P2;Temp;Humidity;BMP_temperature;BMP_pressure;BME280_temperature;BME280_humidity;BME280_pressure;Samples;Min_cycle;Max_cycle;Signal;HPM_P1;HPM_P2
2021/09/17 00:00:52;;;;;;;4.30;3.90;;;;;;;14.24;98.59;98825.09;4895658;28;104149;-63
2021/09/17 00:03:25;;;;;;;3.30;3.00;;;;;;;14.39;97.84;98827.31;4916172;28;103229;-63
2021/09/17 00:05:54;;;;;;;3.63;3.33;;;;;;;14.50;97.68;98819.28;4917991;28;102614;-63
2021/09/17 00:08:22;;;;;;;3.57;3.30;;;;;;;14.57;96.76;98816.91;4903036;28;102757;-69
2021/09/17 00:10:50;;;;;;;4.80;4.40;;;;;;;14.54;96.53;98822.47;4915473;28;104073;-63
2021/09/17 00:13:18;;;;;;;5.53;5.00;;;;;;;14.46;95.87;98819.66;4911165;28;104778;-63
2021/09/17 00:15:47;;;;;;;3.90;3.60;;;;;;;14.40;97.70;98821.00;4914360;28;102707;-63
2021/09/17 00:18:15;;;;;;;3.33;3.03;;;;;;;14.52;97.27;98824.44;4915482;28;102602;-62
2021/09/17 00:20:44;;;;;;;4.43;4.03;;;;;;;14.59;96.69;98819.44;4899063;28;103861;-62
2021/09/17 00:23:12;;;;;;;3.33;2.93;;;;;;;14.61;96.92;98817.47;4911266;28;103221;-62
2021/09/17 00:25:41;;;;;;;3.47;3.17;;;;;;;14.68;96.48;98818.66;4897598;28;102964;-62
2021/09/17 00:28:09;;;;;;;5.77;3.77;;;;;;;14.68;96.03;98823.97;4917939;28;103173;-62
2021/09/17 00:30:37;;;;;;;5.97;4.47;;;;;;;14.44;96.51;98822.44;4919346;28;102996;-63
2021/09/17 00:33:05;;;;;;;5.17;4.67;;;;;;;14.44;97.09;98822.44;4895370;28;103134;-68
2021/09/17 00:35:33;;;;;;;5.20;4.67;;;;;;;14.42;97.60;98819.09;4910674;28;102627;-69
2021/09/17 00:38:03;;;;;;;4.47;4.07;;;;;;;14.53;96.95;98820.81;4901932;28;103877;-63
2021/09/17 00:40:32;;;;;;;5.63;4.70;;;;;;;14.42;97.52;98813.78;4912341;28;103331;-64
2021/09/17 00:43:00;;;;;;;4.80;4.40;;;;;;;14.46;97.39;98814.31;4914646;28;103264;-62
2021/09/17 00:45:28;;;;;;;5.77;5.27;;;;;;;14.25;97.97;98808.19;4913113;28;102859;-62
2021/09/17 00:47:57;;;;;;;4.73;4.33;;;;;;;14.25;98.81;98813.50;4910766;28;102831;-62
2021/09/17 00:50:25;;;;;;;3.70;3.40;;;;;;;14.38;98.58;98809.69;4897201;28;103311;-62
2021/09/17 00:52:53;;;;;;;5.77;5.27;;;;;;;14.37;98.26;98812.50;4917300;28;103334;-63
2021/09/17 00:55:24;;;;;;;6.53;5.97;;;;;;;14.08;100.00;98809.63;4917329;28;103016;-62
2021/09/17 00:57:52;;;;;;;8.23;6.30;;;;;;;14.19;100.00;98812.19;4914871;28;102754;-62
2021/09/17 01:00:20;;;;;;;6.17;5.57;;;;;;;14.11;100.00;98809.38;4915917;28;104081;-69
2021/09/17 01:02:49;;;;;;;4.93;4.53;;;;;;;14.28;100.00;98811.44;4911962;28;103247;-68
2021/09/17 01:05:17;;;;;;;4.67;4.27;;;;;;;14.39;99.99;98802.56;4911815;28;102954;-67
2021/09/17 01:07:46;;;;;;;5.77;5.20;;;;;;;14.49;99.64;98801.63;4916784;28;102751;-68
2021/09/17 01:10:15;;;;;;;5.73;5.23;;;;;;;14.57;98.74;98803.59;4911999;28;103338;-69
2021/09/17 01:12:45;;;;;;;4.70;4.30;;;;;;;14.66;98.51;98794.84;4917907;28;103306;-69
2021/09/17 01:15:14;;;;;;;5.73;5.07;;;;;;;14.60;98.16;98805.16;4899743;28;102904;-69
2021/09/17 01:17:44;;;;;;;11.00;6.70;;;;;;;14.54;98.65;98801.22;4912923;28;103952;-70
2021/09/17 01:20:16;;;;;;;9.20;7.33;;;;;;;14.44;98.97;98790.56;4915441;28;103986;-69
2021/09/17 01:22:47;;;;;;;5.47;5.03;;;;;;;14.55;99.30;98797.59;4918201;28;103287;-69
2021/09/17 01:25:17;;;;;;;6.07;5.10;;;;;;;14.68;98.78;98794.72;4914218;28;102818;-69
2021/09/17 01:27:47;;;;;;;4.90;4.50;;;;;;;14.73;98.70;98789.84;4915287;28;104473;-69
2021/09/17 01:30:16;;;;;;;4.70;4.23;;;;;;;14.80;98.23;98783.84;4917160;28;103715;-69
2021/09/17 01:32:45;;;;;;;4.43;4.03;;;;;;;14.85;98.15;98783.44;4910840;28;103306;-63
2021/09/17 01:35:15;;;;;;;5.43;5.03;;;;;;;14.86;98.33;98782.44;4917382;28;102633;-69
2021/09/17 01:37:45;;;;;;;4.30;3.97;;;;;;;14.83;97.74;98780.06;4917871;28;102825;-70
2021/09/17 01:40:14;;;;;;;8.33;6.43;;;;;;;14.86;97.81;98777.13;4913177;28;104056;-69
2021/09/17 01:42:42;;;;;;;7.77;6.97;;;;;;;14.56;99.24;98787.81;4913140;28;103420;-69
2021/09/17 01:45:11;;;;;;;9.83;7.43;;;;;;;14.17;100.00;98784.09;4911831;28;103053;-68
2021/09/17 01:47:40;;;;;;;9.50;8.00;;;;;;;13.89;100.00;98789.06;4914949;28;102920;-69
2021/09/17 01:50:09;;;;;;;9.90;7.63;;;;;;;13.98;100.00;98776.81;4914480;28;103036;-68
2021/09/17 01:52:38;;;;;;;9.83;7.40;;;;;;;14.02;100.00;98780.06;4889965;28;103246;-63
2021/09/17 01:55:08;;;;;;;7.43;6.80;;;;;;;14.17;100.00;98776.97;4914535;28;102676;-63
2021/09/17 01:57:36;;;;;;;8.37;7.50;;;;;;;13.93;100.00;98784.34;4911902;28;102765;-63
2021/09/17 02:00:06;;;;;;;6.07;5.57;;;;;;;14.13;100.00;98770.22;4916634;28;103827;-63
2021/09/17 02:02:35;;;;;;;5.93;5.43;;;;;;;14.35;100.00;98769.22;4912997;28;103056;-63
2021/09/17 02:05:07;;;;;;;5.30;4.90;;;;;;;14.48;100.00;98770.69;4897173;28;102881;-63
2021/09/17 02:07:35;;;;;;;9.33;8.47;;;;;;;14.20;100.00;98765.22;4911923;28;102771;-63
2021/09/17 02:10:05;;;;;;;6.80;6.20;;;;;;;14.17;100.00;98763.69;4914384;28;104236;-63
2021/09/17 02:12:35;;;;;;;8.00;6.77;;;;;;;14.38;100.00;98758.34;4913462;28;103264;-63
2021/09/17 02:15:04;;;;;;;11.30;9.53;;;;;;;14.14;100.00;98766.59;4912789;28;102721;-63
2021/09/17 02:17:32;;;;;;;10.53;9.37;;;;;;;13.91;100.00;98765.03;4916529;28;102888;-63
2021/09/17 02:20:00;;;;;;;12.17;9.23;;;;;;;13.83;100.00;98768.38;4914257;28;103473;-63
2021/09/17 02:22:29;;;;;;;10.70;9.60;;;;;;;13.85;100.00;98766.41;4913776;28;103235;-63
2021/09/17 02:24:59;;;;;;;10.43;9.40;;;;;;;13.73;100.00;98763.94;4900017;28;102870;-63
2021/09/17 02:27:27;;;;;;;8.83;8.03;;;;;;;13.68;100.00;98763.47;4897853;28;103890;-63
2021/09/17 02:29:57;;;;;;;11.50;9.43;;;;;;;13.70;100.00;98764.19;4913576;28;103314;-63
2021/09/17 02:32:25;;;;;;;7.37;6.70;;;;;;;13.96;100.00;98768.16;4914646;28;103404;-63
2021/09/17 02:34:53;;;;;;;12.70;8.07;;;;;;;14.16;100.00;98772.59;4916217;28;103016;-64
2021/09/17 02:37:21;;;;;;;10.23;9.23;;;;;;;13.78;100.00;98767.88;4919472;28;103853;-69
2021/09/17 02:39:49;;;;;;;9.83;7.70;;;;;;;13.96;100.00;98768.16;4900070;28;103490;-63
2021/09/17 02:42:17;;;;;;;9.83;8.93;;;;;;;13.84;100.00;98771.84;4912770;28;103353;-63
2021/09/17 02:44:45;;;;;;;11.50;9.47;;;;;;;13.74;100.00;98765.63;4913372;28;102740;-63
2021/09/17 02:47:14;;;;;;;10.23;9.23;;;;;;;13.64;100.00;98764.72;4913736;28;102832;-63
2021/09/17 02:49:42;;;;;;;11.77;10.00;;;;;;;13.65;100.00;98766.38;4913898;28;103323;-69
2021/09/17 02:52:10;;;;;;;10.63;9.30;;;;;;;13.68;100.00;98769.63;4916088;28;103160;-68
2021/09/17 02:54:38;;;;;;;13.47;10.23;;;;;;;13.65;100.00;98764.59;4913569;28;102688;-68
2021/09/17 02:57:06;;;;;;;12.20;10.03;;;;;;;13.53;100.00;98764.78;4912573;28;102985;-69
2021/09/17 02:59:35;;;;;;;12.63;10.57;;;;;;;13.40;100.00;98764.09;4914239;28;103543;-69
2021/09/17 03:02:03;;;;;;;9.60;8.70;;;;;;;13.55;100.00;98762.84;4922413;28;103222;-69
2021/09/17 03:04:33;;;;;;;9.70;8.63;;;;;;;13.72;100.00;98757.81;4894291;28;103041;-69
2021/09/17 03:07:01;;;;;;;6.77;6.17;;;;;;;13.88;100.00;98747.56;4912527;28;103906;-63
2021/09/17 03:09:29;;;;;;;9.10;8.17;;;;;;;13.98;100.00;98749.44;4912028;28;103451;-63
2021/09/17 03:11:57;;;;;;;8.77;7.97;;;;;;;14.01;100.00;98736.72;4912633;28;103220;-69
2021/09/17 03:14:25;;;;;;;11.23;8.33;;;;;;;13.96;100.00;98741.59;4915843;28;102741;-69
2021/09/17 03:16:53;;;;;;;7.33;6.63;;;;;;;14.06;100.00;98741.66;4916620;28;102711;-70
2021/09/17 03:19:22;;;;;;;5.97;5.47;;;;;;;14.13;100.00;98742.78;4915070;28;103780;-69
2021/09/17 03:21:51;;;;;;;7.20;6.60;;;;;;;14.22;100.00;98737.53;4903322;28;103270;-69
2021/09/17 03:24:19;;;;;;;10.90;8.70;;;;;;;13.94;100.00;98738.22;4918892;28;102628;-69
2021/09/17 03:26:47;;;;;;;6.03;5.53;;;;;;;14.11;100.00;98734.97;4925876;28;103768;-69
2021/09/17 03:29:15;;;;;;;5.80;5.30;;;;;;;14.28;100.00;98737.03;4919677;28;103233;-63
2021/09/17 03:31:43;;;;;;;5.47;4.97;;;;;;;14.43;100.00;98732.19;4899753;28;103790;-63
2021/09/17 03:34:11;;;;;;;8.93;7.67;;;;;;;14.39;100.00;98742.28;4920526;28;102774;-69
2021/09/17 03:36:42;;;;;;;6.83;6.03;;;;;;;14.42;100.00;98739.34;4921145;28;103274;-69
2021/09/17 03:39:12;;;;;;;7.03;6.53;;;;;;;14.43;100.00;98746.31;4923983;28;103506;-69
2021/09/17 03:41:41;;;;;;;10.23;9.07;;;;;;;14.26;100.00;98738.94;4920464;28;103358;-69
2021/09/17 03:44:09;;;;;;;9.17;8.30;;;;;;;14.36;100.00;98739.88;4924560;28;102788;-69
2021/09/17 03:46:37;;;;;;;6.83;6.13;;;;;;;14.46;100.00;98735.44;4914809;28;102709;-69
2021/09/17 03:49:06;;;;;;;9.60;8.20;;;;;;;14.42;100.00;98738.50;4922252;28;103394;-70
2021/09/17 03:51:34;;;;;;;9.37;8.43;;;;;;;14.35;100.00;98737.34;4920993;28;103307;-69
2021/09/17 03:54:02;;;;;;;11.83;10.07;;;;;;;13.85;100.00;98741.66;4917379;28;102616;-71
2021/09/17 03:56:32;;;;;;;9.50;8.53;;;;;;;13.73;100.00;98742.69;4917682;28;102930;-68
2021/09/17 03:59:00;;;;;;;12.70;10.97;;;;;;;13.63;100.00;98744.44;4921288;28;103511;-69
2021/09/17 04:01:28;;;;;;;8.83;7.97;;;;;;;13.78;100.00;98743.16;4919395;28;103186;-69
2021/09/17 04:03:56;;;;;;;7.37;6.80;;;;;;;14.00;100.00;98732.41;4920730;28;102687;-69
2021/09/17 04:06:24;;;;;;;11.17;9.73;;;;;;;13.63;100.00;98739.97;4912745;28;102716;-69
2021/09/17 04:08:52;;;;;;;9.77;7.83;;;;;;;13.55;100.00;98742.44;4921658;28;103926;-62
2021/09/17 04:11:20;;;;;;;13.47;10.70;;;;;;;13.40;100.00;98743.72;4923666;28;103217;-62
2021/09/17 04:13:50;;;;;;;11.20;10.00;;;;;;;13.65;100.00;98747.81;4921277;28;103657;-62
2021/09/17 04:16:18;;;;;;;10.50;9.50;;;;;;;13.63;100.00;98747.09;4906076;28;103949;-61
2021/09/17 04:18:46;;;;;;;10.33;9.37;;;;;;;13.65;100.00;98742.50;4926007;28;103489;-62
2021/09/17 04:21:14;;;;;;;11.67;9.37;;;;;;;13.61;100.00;98741.09;4895992;28;103258;-62
2021/09/17 04:23:42;;;;;;;7.60;6.90;;;;;;;13.77;100.00;98736.16;4915269;28;102634;-62
2021/09/17 04:26:10;;;;;;;6.77;6.03;;;;;;;13.92;100.00;98730.38;4924931;28;103854;-62
2021/09/17 04:28:38;;;;;;;11.90;10.80;;;;;;;13.59;100.00;98737.69;4919101;28;103930;-69
2021/09/17 04:31:08;;;;;;;11.70;10.60;;;;;;;13.51;100.00;98742.81;4918734;28;103359;-69
2021/09/17 04:33:36;;;;;;;9.07;8.37;;;;;;;13.66;100.00;98739.72;4907446;28;102809;-70
2021/09/17 04:36:04;;;;;;;9.90;8.90;;;;;;;13.62;100.00;98742.75;4919575;28;104017;-69
2021/09/17 04:38:32;;;;;;;8.63;7.83;;;;;;;13.71;100.00;98739.34;4917253;28;103495;-68
2021/09/17 04:41:00;;;;;;;8.53;7.67;;;;;;;13.74;100.00;98747.03;4915961;28;103318;-68
2021/09/17 04:43:28;;;;;;;11.50;9.50;;;;;;;13.46;100.00;98747.66;4916744;28;102715;-69
2021/09/17 04:45:56;;;;;;;10.77;9.70;;;;;;;13.42;100.00;98751.56;4918997;28;103935;-68
2021/09/17 04:48:25;;;;;;;7.53;6.83;;;;;;;13.44;100.00;98749.63;4918664;28;103336;-61
2021/09/17 04:50:53;;;;;;;9.73;8.50;;;;;;;13.56;100.00;98754.72;4906553;28;103184;-61
2021/09/17 04:53:23;;;;;;;11.40;10.30;;;;;;;13.49;100.00;98758.88;4899991;28;103491;-68
2021/09/17 04:55:52;;;;;;;9.00;8.13;;;;;;;13.44;100.00;98765.53;4916193;28;102714;-62
2021/09/17 04:58:40;;;;;;;8.93;7.87;;;;;;;13.45;100.00;98761.88;4912715;28;103373;-62
2021/09/17 05:01:07;;;;;;;10.07;8.53;;;;;;;13.26;100.00;98755.47;4916327;28;103229;-62
2021/09/17 05:03:37;;;;;;;13.53;9.53;;;;;;;12.95;100.00;98758.91;4901495;28;102726;-62
2021/09/17 05:06:05;;;;;;;9.77;8.60;;;;;;;13.12;100.00;98755.75;4914641;28;104177;-62
2021/09/17 05:08:33;;;;;;;10.07;9.17;;;;;;;13.15;100.00;98765.28;4888229;28;103342;-62
2021/09/17 05:11:01;;;;;;;7.83;7.17;;;;;;;13.22;100.00;98764.63;4895735;28;103264;-63
2021/09/17 05:13:29;;;;;;;14.70;8.57;;;;;;;13.38;100.00;98760.72;4904119;28;103008;-62
2021/09/17 05:15:57;;;;;;;8.07;7.37;;;;;;;13.26;100.00;98770.53;4903988;28;102844;-62
2021/09/17 05:18:25;;;;;;;8.83;8.03;;;;;;;13.18;100.00;98770.31;4901648;28;103353;-62
2021/09/17 05:20:55;;;;;;;7.67;6.97;;;;;;;13.27;100.00;98767.78;4910058;28;103215;-62
2021/09/17 05:23:22;;;;;;;6.70;6.10;;;;;;;13.44;100.00;98762.88;4890926;28;102794;-62
2021/09/17 05:25:50;;;;;;;7.80;6.57;;;;;;;13.55;100.00;98766.34;4899938;28;103118;-62
2021/09/17 05:28:19;;;;;;;7.03;6.53;;;;;;;13.62;100.00;98762.19;4908482;28;103309;-62
2021/09/17 05:30:47;;;;;;;8.00;6.97;;;;;;;13.68;100.00;98766.13;4912067;28;103245;-62
2021/09/17 05:33:15;;;;;;;9.07;6.83;;;;;;;13.71;100.00;98761.41;4902398;28;102725;-62
2021/09/17 05:35:42;;;;;;;8.93;8.03;;;;;;;13.64;100.00;98757.56;4905012;28;102756;-61
2021/09/17 05:38:12;;;;;;;9.70;7.17;;;;;;;13.52;100.00;98765.75;4907866;28;103779;-62
2021/09/17 05:40:40;;;;;;;6.40;5.90;;;;;;;13.70;100.00;98761.53;4911721;28;103059;-62
2021/09/17 05:43:08;;;;;;;6.17;5.57;;;;;;;13.84;100.00;98759.41;4906133;28;102696;-62
2021/09/17 05:45:36;;;;;;;6.10;5.47;;;;;;;13.97;100.00;98766.34;4912700;28;103897;-62
2021/09/17 05:48:04;;;;;;;4.70;4.30;;;;;;;14.07;100.00;98760.09;4911920;28;103362;-61
2021/09/17 05:50:33;;;;;;;5.17;4.70;;;;;;;14.14;100.00;98769.25;4907359;28;103267;-62
2021/09/17 05:53:01;;;;;;;5.73;5.10;;;;;;;14.22;100.00;98766.78;4921398;28;102601;-61
2021/09/17 05:55:30;;;;;;;6.60;5.73;;;;;;;14.27;100.00;98761.91;4914880;28;102808;-61
2021/09/17 05:57:58;;;;;;;6.10;5.60;;;;;;;14.33;100.00;98764.06;4905148;28;103404;-61
2021/09/17 06:00:26;;;;;;;13.63;9.33;;;;;;;13.95;100.00;98771.75;4920857;28;103212;-61
2021/09/17 06:02:54;;;;;;;10.47;9.37;;;;;;;13.75;100.00;98764.66;4926158;28;103065;-61
2021/09/17 06:05:22;;;;;;;7.03;6.43;;;;;;;14.07;100.00;98762.75;4909880;28;102776;-62
2021/09/17 06:07:50;;;;;;;6.53;5.93;;;;;;;14.27;100.00;98761.06;4908398;28;103155;-61
2021/09/17 06:10:19;;;;;;;6.63;6.03;;;;;;;14.34;100.00;98756.94;4921545;28;103272;-61
2021/09/17 06:12:48;;;;;;;15.10;10.33;;;;;;;14.11;100.00;98756.22;4927128;28;102868;-61
2021/09/17 06:15:17;;;;;;;8.93;8.13;;;;;;;14.17;100.00;98750.41;4925130;28;102808;-61
2021/09/17 06:17:46;;;;;;;6.83;6.23;;;;;;;14.37;100.00;98749.50;4921135;28;104414;-61
2021/09/17 06:20:15;;;;;;;6.83;6.17;;;;;;;14.59;100.00;98751.16;4924259;28;103247;-68
2021/09/17 06:22:45;;;;;;;7.00;6.30;;;;;;;14.72;100.00;98743.78;4917742;28;102729;-69
2021/09/17 06:25:15;;;;;;;5.77;5.23;;;;;;;14.88;100.00;98751.22;4924868;28;102749;-68
2021/09/17 06:27:44;;;;;;;5.93;5.43;;;;;;;14.97;100.00;98756.59;4925810;28;103424;-61
2021/09/17 06:30:14;;;;;;;6.03;5.43;;;;;;;15.08;100.00;98750.28;4923252;28;103208;-62
2021/09/17 06:32:42;;;;;;;8.57;6.43;;;;;;;15.13;100.00;98756.03;4909257;28;103061;-61
2021/09/17 06:35:11;;;;;;;12.07;8.87;;;;;;;14.92;100.00;98763.28;4905108;28;103053;-61
2021/09/17 06:37:48;;;;;;;12.60;9.73;;;;;;;14.61;100.00;98759.84;4899217;28;103348;-61
2021/09/17 06:40:20;;;;;;;7.60;6.90;;;;;;;14.91;100.00;98751.81;4915199;28;103218;-61
2021/09/17 06:42:50;;;;;;;6.93;6.33;;;;;;;15.13;100.00;98755.22;4921490;28;102650;-62
2021/09/17 06:45:19;;;;;;;7.03;6.13;;;;;;;15.29;100.00;98752.84;4930083;28;102680;-69
2021/09/17 06:47:49;;;;;;;6.33;5.83;;;;;;;15.36;100.00;98753.97;4897230;28;104787;-69
2021/09/17 06:50:19;;;;;;;7.27;6.33;;;;;;;15.51;100.00;98750.78;4926642;28;103370;-67
2021/09/17 06:52:52;;;;;;;6.50;6.00;;;;;;;15.51;100.00;98755.28;4923684;28;102848;-61
2021/09/17 06:55:22;;;;;;;11.73;10.63;;;;;;;15.07;100.00;98753.94;4916593;28;102813;-61
2021/09/17 06:57:52;;;;;;;12.97;10.60;;;;;;;15.04;100.00;98751.56;4921143;28;103290;-68
2021/09/17 07:00:23;;;;;;;11.13;10.00;;;;;;;15.39;100.00;98746.53;4924367;28;103297;-68
2021/09/17 07:02:51;;;;;;;8.87;8.03;;;;;;;15.61;100.00;98748.94;4921909;28;102803;-61
2021/09/17 07:05:20;;;;;;;13.23;10.43;;;;;;;15.56;100.00;98750.34;4916163;28;104382;-60
2021/09/17 07:07:48;;;;;;;11.77;7.90;;;;;;;15.70;100.00;98762.41;4923480;28;104384;-61
2021/09/17 07:10:17;;;;;;;7.03;6.20;;;;;;;15.89;100.00;98765.03;4926596;28;103235;-68
2021/09/17 07:12:47;;;;;;;6.80;6.10;;;;;;;16.01;99.75;98761.25;4899761;28;102988;-67
2021/09/17 07:15:17;;;;;;;6.83;6.13;;;;;;;16.13;98.72;98757.44;4924745;28;103863;-67
2021/09/17 07:17:46;;;;;;;6.70;6.10;;;;;;;16.24;98.07;98754.59;4922516;28;103282;-69
2021/09/17 07:20:15;;;;;;;8.57;7.70;;;;;;;16.32;97.61;98760.03;4920591;28;103276;-61
2021/09/17 07:22:43;;;;;;;11.20;10.00;;;;;;;15.97;95.89;98767.84;4920936;28;102620;-62
2021/09/17 07:25:12;;;;;;;11.57;10.33;;;;;;;15.85;98.42;98769.84;4915786;28;103995;-62
2021/09/17 07:27:40;;;;;;;11.90;9.97;;;;;;;15.84;99.23;98767.28;4923487;28;103404;-62
2021/09/17 07:30:10;;;;;;;11.17;10.13;;;;;;;15.87;99.04;98767.00;4923292;28;103314;-62
2021/09/17 07:32:39;;;;;;;12.47;11.03;;;;;;;15.59;99.96;98764.25;4906603;28;102799;-62
2021/09/17 07:35:10;;;;;;;12.17;10.97;;;;;;;15.61;100.00;98766.75;4912293;28;102752;-62
2021/09/17 07:37:41;;;;;;;11.10;10.10;;;;;;;15.91;99.23;98766.59;4919678;28;103340;-62
2021/09/17 07:40:13;;;;;;;9.80;8.80;;;;;;;16.06;98.70;98767.81;4915039;28;103230;-62
2021/09/17 07:42:42;;;;;;;12.50;10.40;;;;;;;15.89;99.40;98770.38;4915229;28;102995;-62
2021/09/17 07:45:12;;;;;;;10.03;8.70;;;;;;;15.85;98.32;98769.00;4919539;28;102821;-62
2021/09/17 07:47:40;;;;;;;14.27;11.30;;;;;;;16.03;97.00;98772.59;4923943;28;103736;-62
2021/09/17 07:50:12;;;;;;;12.15;10.68;;;;;;;15.96;98.60;98771.50;4922689;28;103221;-69
2021/09/17 07:52:40;;;;;;;13.20;11.50;;;;;;;15.96;96.69;98771.50;4928250;28;102580;-70
2021/09/17 07:55:09;;;;;;;8.75;7.82;;;;;;;16.20;97.26;98771.84;4911053;28;103887;-69
2021/09/17 07:57:38;;;;;;;15.30;10.93;;;;;;;16.40;95.50;98768.16;4928570;28;103391;-68
2021/09/17 08:00:09;;;;;;;11.67;8.90;;;;;;;16.72;94.46;98771.28;4925592;28;102997;-67
2021/09/17 08:02:40;;;;;;;11.18;8.85;;;;;;;16.96;92.61;98772.56;4925723;28;103131;-70
2021/09/17 08:05:14;;;;;;;8.68;7.88;;;;;;;17.20;92.70;98778.19;4922021;28;102720;-67
2021/09/17 08:07:43;;;;;;;9.75;8.23;;;;;;;17.22;92.91;98773.53;4921108;28;103357;-69
2021/09/17 08:10:12;;;;;;;13.52;10.98;;;;;;;16.49;92.13;98777.94;4921275;28;103311;-63
2021/09/17 08:12:40;;;;;;;14.33;11.80;;;;;;;16.52;91.76;98766.16;4927918;28;102739;-62
2021/09/17 08:15:09;;;;;;;16.17;11.65;;;;;;;16.57;90.87;98770.09;4929064;28;103861;-61
2021/09/17 08:17:38;;;;;;;13.32;9.63;;;;;;;16.81;89.53;98773.06;4902804;28;104307;-62
2021/09/17 08:20:07;;;;;;;12.82;11.52;;;;;;;16.24;91.85;98770.59;4924003;28;103242;-69
2021/09/17 08:22:37;;;;;;;14.68;11.27;;;;;;;16.38;92.60;98770.13;4902874;28;102770;-62
2021/09/17 08:25:08;;;;;;;14.38;10.70;;;;;;;16.78;91.15;98765.38;4927246;28;103579;-62
2021/09/17 08:27:37;;;;;;;13.02;10.77;;;;;;;17.14;88.60;98763.63;4927431;28;104336;-62
2021/09/17 08:30:07;;;;;;;11.82;9.60;;;;;;;17.46;89.09;98771.09;4904948;28;103058;-62
2021/09/17 08:32:38;;;;;;;10.07;9.10;;;;;;;17.35;89.44;98773.97;4912385;28;102726;-62
2021/09/17 08:35:08;;;;;;;9.90;9.00;;;;;;;17.12;90.48;98775.44;4924736;28;103286;-62
2021/09/17 08:37:38;;;;;;;9.05;8.15;;;;;;;17.60;88.60;98765.25;4930360;28;104005;-62
2021/09/17 08:40:09;;;;;;;8.23;7.53;;;;;;;17.46;89.33;98764.94;4904585;28;103346;-69
2021/09/17 08:42:38;;;;;;;16.90;11.82;;;;;;;17.00;88.35;98764.13;4920884;28;102590;-70
2021/09/17 08:45:09;;;;;;;13.80;12.02;;;;;;;17.20;87.41;98770.19;4921264;28;102642;-69
2021/09/17 08:47:37;;;;;;;13.48;11.90;;;;;;;17.15;87.73;98767.13;4913449;28;104283;-69
2021/09/17 08:50:07;;;;;;;13.05;9.68;;;;;;;17.46;88.14;98768.41;4919561;28;103059;-69
2021/09/17 08:52:38;;;;;;;9.75;8.88;;;;;;;17.94;86.97;98768.88;4912801;28;102571;-69
2021/09/17 08:55:08;;;;;;;10.93;9.88;;;;;;;17.53;86.52;98769.50;4910459;28;104234;-63
2021/09/17 08:57:37;;;;;;;13.27;10.30;;;;;;;17.47;87.97;98772.78;4918629;28;103328;-62
2021/09/17 09:00:06;;;;;;;10.73;9.73;;;;;;;17.18;86.91;98769.47;4919208;28;103293;-62
2021/09/17 09:02:34;;;;;;;10.00;9.02;;;;;;;17.41;87.56;98770.72;4891306;28;103240;-69
2021/09/17 09:05:08;;;;;;;11.65;10.55;;;;;;;17.78;84.79;98775.94;4922160;28;102736;-62
2021/09/17 09:07:39;;;;;;;9.80;8.90;;;;;;;18.31;84.14;98767.78;4913230;28;103080;-62
2021/09/17 09:10:10;;;;;;;11.27;10.18;;;;;;;18.40;82.74;98772.22;4922125;28;103254;-62
2021/09/17 09:12:43;;;;;;;9.85;8.95;;;;;;;18.55;81.75;98765.31;4893237;28;102683;-62
2021/09/17 09:15:14;;;;;;;10.48;8.82;;;;;;;18.75;83.43;98761.38;4910186;28;102640;-62
2021/09/17 09:17:44;;;;;;;12.98;11.63;;;;;;;18.75;82.25;98772.06;4893880;28;104968;-62
2021/09/17 09:20:23;;;;;;;12.65;11.35;;;;;;;18.38;83.05;98764.34;4915711;28;103242;-68
2021/09/17 09:23:17;;;;;;;13.75;12.35;;;;;;;17.62;83.93;98771.31;4925078;28;102730;-68
2021/09/17 09:25:57;;;;;;;12.88;11.60;;;;;;;17.61;85.60;98768.75;4901506;28;102708;-70
2021/09/17 09:28:27;;;;;;;13.52;11.40;;;;;;;17.88;85.42;98761.47;4914941;28;103087;-63
2021/09/17 09:30:58;;;;;;;11.20;10.20;;;;;;;18.53;83.02;98756.59;4913144;28;103222;-62
2021/09/17 09:33:30;;;;;;;12.90;10.68;;;;;;;18.66;81.00;98757.00;4923143;28;103385;-69
2021/09/17 09:36:06;;;;;;;12.02;10.80;;;;;;;18.76;80.03;98743.47;4897014;28;103131;-69
2021/09/17 09:38:42;;;;;;;9.38;8.48;;;;;;;19.07;80.78;98752.63;4919204;28;103235;-70
2021/09/17 09:41:12;;;;;;;13.55;11.82;;;;;;;18.80;80.01;98751.06;4925624;28;103251;-61
2021/09/17 09:43:42;;;;;;;12.85;11.57;;;;;;;19.20;79.48;98753.00;4924050;28;102676;-62
2021/09/17 09:46:31;;;;;;;11.07;9.95;;;;;;;19.38;78.90;98740.34;4918368;28;102687;-62
2021/09/17 09:49:26;;;;;;;14.70;11.45;;;;;;;18.67;78.24;98742.59;4907754;28;103815;-62
2021/09/17 09:51:57;;;;;;;9.52;8.73;;;;;;;19.15;79.48;98743.78;4921370;28;103166;-62
2021/09/17 09:54:29;;;;;;;11.48;10.27;;;;;;;19.74;78.16;98743.56;4910621;28;102677;-61
2021/09/17 09:57:00;;;;;;;13.48;11.73;;;;;;;19.87;73.82;98745.75;4922483;28;103877;-61
2021/09/17 09:59:32;;;;;;;11.70;10.50;;;;;;;20.31;75.86;98735.47;4930199;28;103037;-61
2021/09/17 10:02:03;;;;;;;14.27;12.88;;;;;;;18.28;77.96;98744.03;4916539;28;103306;-62
2021/09/17 10:04:34;;;;;;;12.07;10.85;;;;;;;19.60;78.30;98738.84;4927728;28;103327;-70
2021/09/17 10:07:05;;;;;;;12.07;10.98;;;;;;;20.12;75.75;98732.16;4918187;28;102783;-63
2021/09/17 10:09:36;;;;;;;11.30;10.10;;;;;;;19.79;75.41;98737.72;4914869;28;103360;-64
2021/09/17 10:12:07;;;;;;;11.45;10.45;;;;;;;20.09;76.20;98729.81;4910061;28;102759;-62
2021/09/17 10:14:36;;;;;;;13.32;10.52;;;;;;;20.36;74.71;98723.22;4905199;28;104048;-63
2021/09/17 10:17:08;;;;;;;10.60;9.50;;;;;;;20.22;75.05;98727.44;4923041;28;102785;-61
2021/09/17 10:19:37;;;;;;;13.00;11.10;;;;;;;20.69;70.98;98723.94;4918418;28;103225;-71
2021/09/17 10:22:06;;;;;;;10.85;9.85;;;;;;;21.14;71.28;98725.94;4923670;28;103271;-62
2021/09/17 10:24:40;;;;;;;11.80;10.80;;;;;;;20.97;70.51;98722.47;4924451;28;102935;-69
2021/09/17 10:27:18;;;;;;;15.20;9.82;;;;;;;20.92;70.58;98721.31;4917220;28;102707;-69
2021/09/17 10:29:59;;;;;;;8.07;7.38;;;;;;;21.29;70.49;98721.50;4921896;28;103291;-69
2021/09/17 10:32:37;;;;;;;10.85;9.65;;;;;;;20.85;69.74;98718.53;4926570;28;103256;-71
2021/09/17 10:35:13;;;;;;;9.35;8.40;;;;;;;21.09;70.46;98717.56;4916663;28;102851;-63
2021/09/17 10:38:02;;;;;;;8.82;8.02;;;;;;;21.24;68.20;98722.03;4916954;28;103622;-62
2021/09/17 10:40:53;;;;;;;11.55;10.30;;;;;;;21.28;68.72;98717.13;4917863;28;103401;-62
2021/09/17 10:43:27;;;;;;;9.88;8.88;;;;;;;21.25;67.79;98721.00;4926623;28;103223;-63
2021/09/17 10:45:57;;;;;;;10.05;9.25;;;;;;;21.53;67.94;98713.25;4919128;28;102784;-62
2021/09/17 10:48:27;;;;;;;9.18;8.43;;;;;;;21.50;69.04;98718.16;4914592;28;102797;-62
2021/09/17 10:51:00;;;;;;;11.18;10.15;;;;;;;20.75;65.57;98713.34;4911728;28;103340;-62
2021/09/17 10:54:06;;;;;;;11.38;10.38;;;;;;;21.14;65.26;98713.34;4929216;28;103226;-62
2021/09/17 10:57:06;;;;;;;6.75;6.13;;;;;;;21.68;62.62;98699.84;4914815;28;102733;-63
2021/09/17 10:59:47;;;;;;;9.38;7.82;;;;;;;21.73;63.37;98697.47;4909097;28;102657;-62
2021/09/17 11:02:16;;;;;;;6.93;6.32;;;;;;;21.36;63.29;98707.16;4911256;28;103256;-62
2021/09/17 11:04:49;;;;;;;8.82;7.97;;;;;;;20.64;65.12;98703.00;4919242;28;103285;-63
2021/09/17 11:07:33;;;;;;;9.82;8.93;;;;;;;20.72;66.17;98710.19;4921156;28;102712;-63
2021/09/17 11:10:04;;;;;;;6.88;6.28;;;;;;;21.34;66.55;98711.88;4917907;28;102570;-62
2021/09/17 11:12:35;;;;;;;10.63;9.63;;;;;;;21.38;65.73;98705.16;4921818;28;103899;-62
2021/09/17 11:15:13;;;;;;;6.78;6.20;;;;;;;21.84;64.17;98705.09;4908249;28;103232;-62
2021/09/17 11:17:46;;;;;;;8.90;7.72;;;;;;;21.54;62.21;98704.19;4918296;28;102665;-62
2021/09/17 11:20:18;;;;;;;9.27;8.38;;;;;;;21.39;62.32;98701.41;4914779;28;102697;-62
2021/09/17 11:23:00;;;;;;;7.70;6.88;;;;;;;22.06;59.99;98688.13;4909735;28;103827;-62
2021/09/17 11:25:32;;;;;;;5.88;5.47;;;;;;;23.27;58.90;98691.97;4914885;28;103227;-61
2021/09/17 11:28:03;;;;;;;8.98;8.18;;;;;;;22.71;58.48;98690.09;4891369;28;102883;-63
2021/09/17 11:30:34;;;;;;;8.50;7.68;;;;;;;22.77;58.17;98692.00;4911680;28;102714;-64